Time;durP1;ratioP1;P1;durP2;ratioP2;P2;SDS_P1;SDS_P2;PMS_P1;PMS_P2;Temp;Humidity;BMP_temperature;BMP_pressure;BME280_temperature;BME280_humidity;BME280_pressure;Samples;Min_cycle;Max_cycle;Signal;HPM_P1;HPM_P2
2021/03/13 00:01:14;;;;;;;0.10;0.10;;;6.10;99.90;;;;;;5027524;28;20561;-85
2021/03/13 00:03:40;;;;;;;0.00;0.00;;;6.20;99.90;;;;;;5048055;28;20207;-84
2021/03/13 00:06:06;;;;;;;0.20;0.20;;;6.30;99.90;;;;;;5045717;28;20187;-85
2021/03/13 00:08:35;;;;;;;0.10;0.10;;;6.30;99.90;;;;;;5031376;28;20305;-84
2021/03/13 00:11:07;;;;;;;0.37;0.37;;;6.30;99.90;;;;;;5031874;28;20192;-84
2021/03/13 00:13:33;;;;;;;0.30;0.30;;;6.10;99.90;;;;;;5033339;28;20217;-85
2021/03/13 00:15:58;;;;;;;0.10;0.10;;;6.30;99.90;;;;;;5023673;28;20184;-85
2021/03/13 00:18:24;;;;;;;0.10;0.10;;;6.30;99.90;;;;;;5048273;28;20190;-84
2021/03/13 00:20:50;;;;;;;0.03;0.03;;;6.30;99.90;;;;;;5059953;28;20273;-85
2021/03/13 00:23:15;;;;;;;0.30;0.30;;;6.30;99.90;;;;;;5037989;28;20207;-85
2021/03/13 00:25:41;;;;;;;0.40;0.40;;;6.50;99.90;;;;;;5044793;28;20617;-85
2021/03/13 00:28:09;;;;;;;0.30;0.30;;;6.70;99.90;;;;;;5031719;28;20217;-83
2021/03/13 00:30:39;;;;;;;0.00;0.00;;;6.70;99.90;;;;;;5032516;28;20197;-84
2021/03/13 00:33:08;;;;;;;0.20;0.20;;;6.70;99.90;;;;;;5033254;28;20210;-85
2021/03/13 00:35:33;;;;;;;0.13;0.13;;;6.80;99.90;;;;;;5032751;28;20178;-85
2021/03/13 00:38:00;;;;;;;0.53;0.20;;;6.90;99.90;;;;;;5031738;28;20190;-84
2021/03/13 00:40:29;;;;;;;0.30;0.30;;;7.00;99.90;;;;;;5048665;28;20701;-86
2021/03/13 00:42:56;;;;;;;0.20;0.20;;;7.10;99.90;;;;;;5033724;28;20297;-85
2021/03/13 00:45:24;;;;;;;0.00;0.00;;;6.90;99.90;;;;;;5033521;28;20186;-85
2021/03/13 00:47:50;;;;;;;0.20;0.20;;;6.80;99.90;;;;;;5032381;28;20227;-85
2021/03/13 00:50:18;;;;;;;0.30;0.30;;;6.80;99.90;;;;;;5032239;28;20261;-85
2021/03/13 00:52:44;;;;;;;0.13;0.13;;;6.80;99.90;;;;;;5031885;28;20175;-85
2021/03/13 00:55:11;;;;;;;0.10;0.10;;;6.80;99.90;;;;;;5031486;28;20244;-85
2021/03/13 00:57:37;;;;;;;0.20;0.20;;;6.90;99.90;;;;;;5032500;28;20194;-85
2021/03/13 01:00:05;;;;;;;0.10;0.10;;;7.00;99.90;;;;;;5030871;28;20186;-85
2021/03/13 01:02:31;;;;;;;0.27;0.27;;;7.00;99.90;;;;;;5048222;28;20651;-85
2021/03/13 01:04:56;;;;;;;0.30;0.20;;;7.10;99.90;;;;;;5048948;28;20345;-85
2021/03/13 01:07:22;;;;;;;1.40;1.00;;;7.10;99.90;;;;;;5031070;28;20277;-84
2021/03/13 01:09:47;;;;;;;0.10;0.10;;;7.10;99.90;;;;;;5033055;28;20182;-85
2021/03/13 01:12:13;;;;;;;0.03;0.03;;;7.20;99.90;;;;;;5027753;28;20286;-85
2021/03/13 01:14:40;;;;;;;0.00;0.00;;;7.20;99.90;;;;;;5030496;28;20210;-85
2021/03/13 01:17:05;;;;;;;0.63;0.30;;;7.30;99.90;;;;;;5048804;28;20187;-85
2021/03/13 01:19:31;;;;;;;0.20;0.20;;;7.30;99.90;;;;;;5031572;28;20275;-84
2021/03/13 01:21:56;;;;;;;0.10;0.10;;;7.30;99.90;;;;;;5030402;28;20183;-85
2021/03/13 01:24:22;;;;;;;0.10;0.10;;;7.40;99.90;;;;;;5031514;28;20245;-84
2021/03/13 01:26:48;;;;;;;0.00;0.00;;;7.40;99.90;;;;;;5030244;28;20567;-85
2021/03/13 01:29:14;;;;;;;0.10;0.10;;;7.40;99.90;;;;;;5031353;28;20190;-85
2021/03/13 01:31:40;;;;;;;0.10;0.10;;;7.50;99.90;;;;;;5031029;28;20665;-85
2021/03/13 01:34:05;;;;;;;0.10;0.10;;;7.50;99.90;;;;;;5030172;28;20309;-85
2021/03/13 01:36:31;;;;;;;0.00;0.00;;;7.50;99.90;;;;;;5048114;28;20186;-85
2021/03/13 01:38:57;;;;;;;0.10;0.10;;;7.50;99.90;;;;;;5031742;28;20178;-84
2021/03/13 01:41:22;;;;;;;0.10;0.10;;;7.50;99.90;;;;;;5031411;28;20585;-86
2021/03/13 01:43:48;;;;;;;1.97;0.37;;;7.50;99.90;;;;;;5029587;28;20210;-85
2021/03/13 01:46:13;;;;;;;0.13;0.10;;;7.40;99.90;;;;;;5031546;28;20209;-86
2021/03/13 01:48:50;;;;;;;0.10;0.10;;;7.40;99.90;;;;;;5047049;28;20187;-85
2021/03/13 01:51:17;;;;;;;0.10;0.10;;;7.40;99.90;;;;;;5046907;28;20684;-85
2021/03/13 01:53:43;;;;;;;0.40;0.40;;;7.50;99.90;;;;;;5037980;28;20214;-85
2021/03/13 01:56:09;;;;;;;0.07;0.07;;;7.50;99.90;;;;;;5030490;28;20190;-85
2021/03/13 01:58:34;;;;;;;0.10;0.10;;;7.40;99.90;;;;;;5031582;28;20182;-86
2021/03/13 02:01:00;;;;;;;0.20;0.20;;;7.40;99.90;;;;;;5026887;28;20189;-86
2021/03/13 02:03:26;;;;;;;0.10;0.10;;;7.50;99.90;;;;;;5043839;28;20210;-84
2021/03/13 02:05:52;;;;;;;0.23;0.23;;;7.60;99.90;;;;;;5030329;28;20186;-86
2021/03/13 02:08:47;;;;;;;0.00;0.00;;;7.60;99.90;;;;;;5030086;28;20265;-85
2021/03/13 02:11:25;;;;;;;0.00;0.00;;;7.60;99.90;;;;;;5032222;28;20276;-85
2021/03/13 02:14:12;;;;;;;0.20;0.20;;;7.60;99.90;;;;;;5026053;28;20765;-86
2021/03/13 02:17:17;;;;;;;0.10;0.10;;;7.60;99.90;;;;;;5031263;28;20229;-86
2021/03/13 02:20:05;;;;;;;0.00;0.00;;;7.50;99.90;;;;;;4993142;28;20283;-85
2021/03/13 02:22:37;;;;;;;0.10;0.10;;;7.50;99.90;;;;;;5025126;28;20188;-86
2021/03/13 02:25:20;;;;;;;0.00;0.00;;;7.40;99.90;;;;;;5041650;28;20214;-85
2021/03/13 02:27:56;;;;;;;0.00;0.00;;;7.50;99.90;;;;;;5027963;28;20655;-86
2021/03/13 02:30:23;;;;;;;0.10;0.10;;;7.50;99.90;;;;;;5036235;28;20189;-86
2021/03/13 02:33:19;;;;;;;0.13;0.13;;;7.60;99.90;;;;;;5017359;28;20803;-86
2021/03/13 02:35:49;;;;;;;0.10;0.10;;;7.60;99.90;;;;;;5029950;28;20178;-86
2021/03/13 02:38:25;;;;;;;0.10;0.10;;;7.50;99.90;;;;;;5030158;28;20212;-85
2021/03/13 02:40:54;;;;;;;0.10;0.10;;;7.50;99.90;;;;;;5029269;28;20184;-84
2021/03/13 02:43:21;;;;;;;0.10;0.10;;;7.50;99.90;;;;;;5028875;28;20213;-85
2021/03/13 02:45:49;;;;;;;0.10;0.10;;;7.50;99.90;;;;;;5029897;28;20588;-86
2021/03/13 02:48:20;;;;;;;0.10;0.10;;;7.50;99.90;;;;;;5030119;28;20175;-85
2021/03/13 02:50:46;;;;;;;0.10;0.10;;;7.40;99.90;;;;;;5017012;28;20184;-85
2021/03/13 02:53:13;;;;;;;0.10;0.10;;;7.40;99.90;;;;;;5030341;28;20305;-85
2021/03/13 02:55:40;;;;;;;0.20;0.20;;;7.50;99.90;;;;;;5029853;28;20244;-85
2021/03/13 02:58:06;;;;;;;0.00;0.00;;;7.40;99.90;;;;;;5030948;28;20179;-85
2021/03/13 03:00:36;;;;;;;0.10;0.10;;;7.50;99.90;;;;;;5030071;28;20196;-86
2021/03/13 03:03:04;;;;;;;0.00;0.00;;;7.50;99.90;;;;;;5035092;28;20620;-86
2021/03/13 03:05:31;;;;;;;0.00;0.00;;;7.50;99.90;;;;;;5030818;28;20193;-86
2021/03/13 03:08:01;;;;;;;0.00;0.00;;;7.50;99.90;;;;;;5029647;28;20179;-86
2021/03/13 03:10:31;;;;;;;0.20;0.20;;;7.50;99.90;;;;;;5029434;28;20194;-85
2021/03/13 03:12:57;;;;;;;0.03;0.03;;;7.60;99.90;;;;;;5021653;28;20214;-85
2021/03/13 03:15:26;;;;;;;0.07;0.07;;;7.50;99.90;;;;;;5030165;28;20209;-84
2021/03/13 03:17:54;;;;;;;0.00;0.00;;;7.60;99.90;;;;;;5029215;28;20661;-85
2021/03/13 03:20:21;;;;;;;0.10;0.10;;;7.60;99.90;;;;;;5030443;28;20233;-85
2021/03/13 03:22:47;;;;;;;0.10;0.10;;;7.50;99.90;;;;;;5029451;28;20194;-85
2021/03/13 03:25:13;;;;;;;0.00;0.00;;;7.60;99.90;;;;;;5030759;28;20183;-85
2021/03/13 03:27:52;;;;;;;0.20;0.20;;;7.60;99.90;;;;;;5032735;28;20175;-86
2021/03/13 03:30:27;;;;;;;0.10;0.10;;;7.60;99.90;;;;;;5037174;28;20205;-85
2021/03/13 03:32:52;;;;;;;0.00;0.00;;;7.60;99.90;;;;;;5024557;28;20210;-85
2021/03/13 03:35:19;;;;;;;0.10;0.10;;;7.60;99.90;;;;;;5033395;28;20708;-85
2021/03/13 03:37:46;;;;;;;0.10;0.10;;;7.60;99.90;;;;;;5034888;28;20187;-85
2021/03/13 03:40:15;;;;;;;0.00;0.00;;;7.60;99.90;;;;;;5033026;28;20685;-85
2021/03/13 03:43:03;;;;;;;0.10;0.10;;;7.60;99.90;;;;;;5032636;28;20214;-86
2021/03/13 03:45:32;;;;;;;0.03;0.03;;;7.60;99.90;;;;;;5033997;28;20309;-85
2021/03/13 03:48:04;;;;;;;0.10;0.10;;;7.60;99.90;;;;;;5033873;28;20206;-85
2021/03/13 03:50:31;;;;;;;0.10;0.10;;;7.50;99.90;;;;;;5033931;28;20643;-86
2021/03/13 03:52:57;;;;;;;0.10;0.10;;;7.60;99.90;;;;;;5033258;28;20210;-86
2021/03/13 03:55:24;;;;;;;0.13;0.13;;;7.50;99.90;;;;;;5049684;28;20235;-85
2021/03/13 03:57:51;;;;;;;0.10;0.10;;;7.50;99.90;;;;;;5034409;28;20191;-85
2021/03/13 04:00:19;;;;;;;0.10;0.10;;;7.60;99.90;;;;;;5034117;28;20213;-85
2021/03/13 04:02:46;;;;;;;0.10;0.10;;;7.60;99.90;;;;;;5034130;28;20193;-85
2021/03/13 04:05:15;;;;;;;0.10;0.10;;;7.60;99.90;;;;;;5034336;28;20191;-85
2021/03/13 04:07:41;;;;;;;0.10;0.10;;;7.70;99.90;;;;;;5029205;28;20182;-85
2021/03/13 04:10:08;;;;;;;0.10;0.10;;;7.70;99.90;;;;;;5032305;28;20189;-85
2021/03/13 04:12:37;;;;;;;0.00;0.00;;;7.70;99.90;;;;;;5032188;28;20194;-85
2021/03/13 04:15:04;;;;;;;0.10;0.10;;;7.70;99.90;;;;;;5034072;28;20202;-84
2021/03/13 04:17:31;;;;;;;0.10;0.10;;;7.70;99.90;;;;;;5027490;28;20210;-84
2021/03/13 04:19:56;;;;;;;0.07;0.07;;;7.70;99.90;;;;;;5029207;28;20182;-85
2021/03/13 04:22:23;;;;;;;0.00;0.00;;;7.70;99.90;;;;;;5035001;28;20231;-85
2021/03/13 04:24:50;;;;;;;0.10;0.10;;;7.70;99.90;;;;;;5026321;28;20282;-85
2021/03/13 04:27:17;;;;;;;0.10;0.10;;;7.70;99.90;;;;;;5027515;28;20193;-84
2021/03/13 04:29:43;;;;;;;0.10;0.10;;;7.70;99.90;;;;;;5031767;28;20186;-85
2021/03/13 04:32:09;;;;;;;0.10;0.10;;;7.70;99.90;;;;;;5032850;28;20786;-85
2021/03/13 04:34:35;;;;;;;0.03;0.03;;;7.70;99.90;;;;;;5044877;28;20327;-85
2021/03/13 04:37:02;;;;;;;0.10;0.10;;;7.70;99.90;;;;;;5031640;28;20178;-84
2021/03/13 04:39:28;;;;;;;0.10;0.10;;;7.70;99.90;;;;;;5032211;28;20178;-85
2021/03/13 04:41:55;;;;;;;0.10;0.10;;;7.70;99.90;;;;;;5032018;28;20179;-85
2021/03/13 04:44:22;;;;;;;0.00;0.00;;;7.70;99.90;;;;;;5048400;28;20210;-85
2021/03/13 04:46:49;;;;;;;0.10;0.10;;;7.70;99.90;;;;;;5033683;28;20713;-85
2021/03/13 04:49:16;;;;;;;0.00;0.00;;;7.60;99.90;;;;;;5033444;28;20331;-85
2021/03/13 04:51:42;;;;;;;0.10;0.10;;;7.60;99.90;;;;;;5033127;28;21013;-85
2021/03/13 04:54:08;;;;;;;0.07;0.07;;;7.60;99.90;;;;;;5032800;28;20241;-84
2021/03/13 04:56:34;;;;;;;1.30;0.83;;;7.60;99.90;;;;;;5048382;28;20193;-85
2021/03/13 04:59:00;;;;;;;0.10;0.10;;;7.70;99.90;;;;;;5032523;28;20178;-85
2021/03/13 05:01:25;;;;;;;0.00;0.00;;;7.80;99.90;;;;;;5032315;28;20202;-86
2021/03/13 05:03:51;;;;;;;0.07;0.07;;;7.80;99.90;;;;;;5048176;28;20217;-85
2021/03/13 05:06:16;;;;;;;0.10;0.10;;;7.80;99.90;;;;;;5033235;28;20257;-85
2021/03/13 05:08:42;;;;;;;0.07;0.07;;;7.80;99.90;;;;;;5048570;28;20650;-85
2021/03/13 05:11:08;;;;;;;0.10;0.10;;;7.80;99.90;;;;;;5033025;28;20215;-86
2021/03/13 05:13:34;;;;;;;0.10;0.10;;;7.80;99.90;;;;;;5031446;28;20214;-84
2021/03/13 05:16:00;;;;;;;5.00;0.20;;;7.80;99.90;;;;;;5033107;28;20178;-85
2021/03/13 05:18:25;;;;;;;0.10;0.10;;;7.80;99.90;;;;;;5031847;28;20178;-85
2021/03/13 05:20:51;;;;;;;0.07;0.07;;;7.80;99.90;;;;;;5030560;28;20217;-85
2021/03/13 05:23:16;;;;;;;0.03;0.03;;;7.80;99.90;;;;;;5047771;28;20206;-85
2021/03/13 05:25:43;;;;;;;0.00;0.00;;;7.90;99.90;;;;;;5047909;28;20186;-86
2021/03/13 05:28:09;;;;;;;4.07;0.30;;;7.80;99.90;;;;;;5031391;28;20182;-85
2021/03/13 05:30:35;;;;;;;0.00;0.00;;;7.80;99.90;;;;;;5053876;28;20301;-85
2021/03/13 05:33:01;;;;;;;0.10;0.10;;;7.90;99.90;;;;;;5031338;28;20630;-85
2021/03/13 05:35:26;;;;;;;0.10;0.10;;;7.90;99.90;;;;;;5030840;28;20190;-85
2021/03/13 05:37:52;;;;;;;0.20;0.20;;;7.90;99.90;;;;;;5031246;28;20190;-86
2021/03/13 05:40:18;;;;;;;0.10;0.10;;;7.90;99.90;;;;;;5047713;28;20174;-85
2021/03/13 05:42:43;;;;;;;0.10;0.10;;;7.90;99.90;;;;;;5031084;28;20258;-85
2021/03/13 05:45:10;;;;;;;0.10;0.10;;;7.90;99.90;;;;;;5032452;28;20542;-86
2021/03/13 05:47:37;;;;;;;0.10;0.10;;;7.90;99.90;;;;;;5031415;28;20195;-85
2021/03/13 05:50:09;;;;;;;0.10;0.10;;;7.90;99.90;;;;;;5028772;28;20202;-85
2021/03/13 05:52:36;;;;;;;0.10;0.10;;;7.90;99.90;;;;;;5030816;28;20690;-85
2021/03/13 05:55:10;;;;;;;0.10;0.10;;;7.90;99.90;;;;;;5031325;28;20704;-84
2021/03/13 05:57:36;;;;;;;0.10;0.10;;;7.90;99.90;;;;;;5031114;28;20225;-85
2021/03/13 06:00:04;;;;;;;0.10;0.10;;;7.90;99.90;;;;;;5030008;28;20214;-85
2021/03/13 06:02:30;;;;;;;0.00;0.00;;;7.90;99.90;;;;;;5027804;28;20241;-85
2021/03/13 06:04:56;;;;;;;0.10;0.10;;;8.00;99.90;;;;;;5030561;28;20297;-85
2021/03/13 06:07:23;;;;;;;0.20;0.20;;;8.00;99.90;;;;;;5047012;28;20201;-86
2021/03/13 06:09:56;;;;;;;0.10;0.10;;;7.90;99.90;;;;;;5031221;28;20233;-86
2021/03/13 06:12:23;;;;;;;0.00;0.00;;;8.00;99.90;;;;;;5025757;28;20198;-86
2021/03/13 06:14:50;;;;;;;0.10;0.10;;;7.90;99.90;;;;;;5031783;28;20598;-85
2021/03/13 06:17:16;;;;;;;0.10;0.10;;;7.90;99.90;;;;;;5030939;28;20193;-85
2021/03/13 06:19:50;;;;;;;0.10;0.10;;;7.90;99.90;;;;;;5024762;28;20190;-86
2021/03/13 06:22:33;;;;;;;0.10;0.10;;;7.90;99.90;;;;;;5028517;28;20182;-85
2021/03/13 06:25:25;;;;;;;0.20;0.20;;;7.90;99.90;;;;;;5025987;28;20186;-86
2021/03/13 06:28:10;;;;;;;0.10;0.10;;;7.90;99.90;;;;;;5031178;28;20221;-85
2021/03/13 06:30:40;;;;;;;0.00;0.00;;;7.90;99.90;;;;;;5025297;28;20190;-85
2021/03/13 06:33:30;;;;;;;0.10;0.10;;;8.00;99.90;;;;;;5031470;28;20768;-85
2021/03/13 06:36:08;;;;;;;0.10;0.10;;;8.00;99.90;;;;;;5030571;28;20182;-85
2021/03/13 06:38:36;;;;;;;0.10;0.10;;;8.00;99.90;;;;;;5030273;28;20257;-85
2021/03/13 06:41:15;;;;;;;0.03;0.03;;;8.00;99.90;;;;;;5026730;28;20278;-85
2021/03/13 06:43:41;;;;;;;0.10;0.10;;;8.10;99.90;;;;;;5029656;28;20237;-84
2021/03/13 06:46:09;;;;;;;0.10;0.10;;;8.10;99.90;;;;;;5029579;28;20193;-84
2021/03/13 06:48:38;;;;;;;0.20;0.20;;;8.20;99.90;;;;;;5025741;28;20246;-84
2021/03/13 06:51:26;;;;;;;0.13;0.13;;;8.20;99.90;;;;;;5028686;28;20656;-84
2021/03/13 06:54:10;;;;;;;0.00;0.00;;;8.20;99.90;;;;;;5040688;28;20219;-84
2021/03/13 06:56:41;;;;;;;0.10;0.10;;;8.20;99.90;;;;;;5029180;28;20178;-84
2021/03/13 06:59:45;;;;;;;0.10;0.10;;;8.30;99.90;;;;;;5028025;28;20176;-85
2021/03/13 07:02:13;;;;;;;0.10;0.10;;;8.30;99.90;;;;;;5022596;28;20222;-83
2021/03/13 07:04:42;;;;;;;0.10;0.10;;;8.30;99.90;;;;;;5039761;28;20566;-82
2021/03/13 07:07:08;;;;;;;0.07;0.07;;;8.20;99.90;;;;;;5027758;28;20198;-85
2021/03/13 07:09:54;;;;;;;0.10;0.10;;;8.30;99.90;;;;;;5027262;28;20190;-85
2021/03/13 07:12:25;;;;;;;0.10;0.10;;;8.30;99.90;;;;;;5034197;28;20663;-85
2021/03/13 07:14:52;;;;;;;0.70;0.70;;;8.20;99.90;;;;;;5031402;28;20209;-84
2021/03/13 07:17:17;;;;;;;0.10;0.10;;;8.30;99.90;;;;;;5042321;28;20184;-85
2021/03/13 07:19:43;;;;;;;0.10;0.10;;;8.30;99.90;;;;;;5028826;28;20181;-84
2021/03/13 07:22:11;;;;;;;0.10;0.10;;;8.30;99.90;;;;;;5030011;28;20182;-84
2021/03/13 07:24:39;;;;;;;0.00;0.00;;;8.30;99.90;;;;;;5030576;28;20206;-84
2021/03/13 07:27:09;;;;;;;0.10;0.10;;;8.30;99.90;;;;;;5034298;28;20720;-86
2021/03/13 07:29:35;;;;;;;0.10;0.10;;;8.30;99.90;;;;;;5024724;28;20224;-84
2021/03/13 07:32:02;;;;;;;0.83;0.40;;;8.40;99.90;;;;;;5031714;28;20179;-84
2021/03/13 07:34:35;;;;;;;0.10;0.10;;;8.40;99.90;;;;;;5030877;28;20209;-85
2021/03/13 07:37:02;;;;;;;0.10;0.10;;;8.40;99.90;;;;;;5046169;28;20808;-84
2021/03/13 07:39:47;;;;;;;0.10;0.10;;;8.50;99.90;;;;;;5049777;28;20342;-84
2021/03/13 07:42:17;;;;;;;0.10;0.10;;;8.50;99.90;;;;;;5047254;28;20179;-85
2021/03/13 07:44:44;;;;;;;0.00;0.00;;;8.50;99.90;;;;;;5024723;28;20235;-85
2021/03/13 07:47:12;;;;;;;0.77;0.23;;;8.50;99.90;;;;;;5028903;28;20191;-85
2021/03/13 07:49:38;;;;;;;0.07;0.07;;;8.60;99.90;;;;;;5026732;28;20183;-85
2021/03/13 07:52:07;;;;;;;0.03;0.03;;;8.60;99.90;;;;;;5032552;28;20195;-84
2021/03/13 07:54:37;;;;;;;0.03;0.03;;;8.70;99.90;;;;;;5028295;28;20214;-84
2021/03/13 07:57:05;;;;;;;0.00;0.00;;;8.60;99.90;;;;;;5020856;28;20174;-82
2021/03/13 07:59:47;;;;;;;0.10;0.10;;;8.70;99.90;;;;;;5032423;28;20265;-83
2021/03/13 08:02:28;;;;;;;0.03;0.03;;;8.70;99.90;;;;;;5028540;28;20658;-82
2021/03/13 08:04:56;;;;;;;0.10;0.10;;;8.70;99.90;;;;;;5028131;28;20210;-84
2021/03/13 08:07:23;;;;;;;0.10;0.10;;;8.70;99.90;;;;;;5037236;28;20213;-84
2021/03/13 08:09:49;;;;;;;0.10;0.10;;;8.70;99.90;;;;;;5023163;28;20190;-85
2021/03/13 08:12:41;;;;;;;0.10;0.10;;;8.70;99.90;;;;;;5034574;28;20670;-85
2021/03/13 08:15:36;;;;;;;0.10;0.10;;;8.70;99.90;;;;;;5025756;28;20204;-85
2021/03/13 08:18:02;;;;;;;0.00;0.00;;;8.80;99.90;;;;;;5037222;28;20615;-84
2021/03/13 08:20:29;;;;;;;0.10;0.10;;;8.80;99.90;;;;;;5041969;28;20265;-85
2021/03/13 08:23:14;;;;;;;0.10;0.10;;;8.90;99.90;;;;;;5035515;28;20195;-85
2021/03/13 08:25:57;;;;;;;0.20;0.20;;;8.90;99.90;;;;;;5032063;28;20213;-84
2021/03/13 08:28:49;;;;;;;0.10;0.10;;;8.90;99.90;;;;;;5028394;28;20182;-86
2021/03/13 08:31:24;;;;;;;0.20;0.20;;;8.90;99.90;;;;;;5021513;28;20187;-85
2021/03/13 08:33:59;;;;;;;0.10;0.10;;;8.90;99.90;;;;;;5035662;28;20697;-85
2021/03/13 08:36:26;;;;;;;0.00;0.00;;;8.90;99.90;;;;;;5035232;28;20177;-85
2021/03/13 08:39:00;;;;;;;0.10;0.10;;;9.00;99.90;;;;;;5034152;28;20207;-85
2021/03/13 08:41:44;;;;;;;0.10;0.10;;;9.00;99.90;;;;;;5033759;28;20183;-85
2021/03/13 08:44:15;;;;;;;0.20;0.20;;;9.00;99.90;;;;;;5026786;28;20206;-85
2021/03/13 08:46:44;;;;;;;0.10;0.10;;;9.00;99.90;;;;;;5033010;28;20575;-85
2021/03/13 08:49:26;;;;;;;0.97;0.97;;;9.00;99.90;;;;;;5034552;28;20193;-85
2021/03/13 08:52:09;;;;;;;0.00;0.00;;;9.10;99.90;;;;;;5037758;28;20183;-85
2021/03/13 08:54:41;;;;;;;0.03;0.03;;;9.20;99.90;;;;;;5034825;28;20238;-85
2021/03/13 08:57:25;;;;;;;0.10;0.10;;;9.10;99.90;;;;;;5041559;28;20553;-85
2021/03/13 08:59:54;;;;;;;0.10;0.10;;;9.20;99.90;;;;;;5034139;28;20178;-84
2021/03/13 09:02:22;;;;;;;0.10;0.10;;;9.10;99.90;;;;;;5029103;28;20256;-85
2021/03/13 09:04:50;;;;;;;0.37;0.30;;;9.20;99.90;;;;;;5034033;28;20207;-85
2021/03/13 09:07:22;;;;;;;0.10;0.10;;;9.20;99.90;;;;;;5029515;28;20212;-84
2021/03/13 09:09:48;;;;;;;0.10;0.10;;;9.30;99.90;;;;;;5032451;28;20187;-85
2021/03/13 09:12:24;;;;;;;0.00;0.00;;;9.40;99.90;;;;;;5029885;28;20746;-85
2021/03/13 09:14:52;;;;;;;0.00;0.00;;;9.50;99.90;;;;;;5032325;28;20345;-84
2021/03/13 09:17:23;;;;;;;0.10;0.10;;;9.50;99.90;;;;;;5032178;28;20214;-83
2021/03/13 09:19:50;;;;;;;0.10;0.10;;;9.50;99.90;;;;;;5031680;28;20188;-85
2021/03/13 09:22:18;;;;;;;0.00;0.00;;;9.50;99.90;;;;;;5033133;28;20244;-84
2021/03/13 09:24:51;;;;;;;0.73;0.37;;;9.50;99.90;;;;;;5030697;28;20702;-83
2021/03/13 09:27:16;;;;;;;0.20;0.20;;;9.60;99.90;;;;;;5032932;28;20197;-85
2021/03/13 09:29:42;;;;;;;0.20;0.20;;;9.60;99.90;;;;;;5031954;28;20199;-85
2021/03/13 09:32:13;;;;;;;0.10;0.10;;;9.60;99.90;;;;;;5031865;28;20200;-85
2021/03/13 09:34:43;;;;;;;0.10;0.10;;;9.60;99.90;;;;;;5031660;28;20409;-84
2021/03/13 09:37:30;;;;;;;0.10;0.10;;;9.60;99.90;;;;;;5032047;28;20187;-84
2021/03/13 09:40:07;;;;;;;0.10;0.10;;;9.50;99.90;;;;;;5032232;28;20186;-84
2021/03/13 09:42:34;;;;;;;0.20;0.20;;;9.60;99.90;;;;;;5022166;28;20194;-85
2021/03/13 09:45:05;;;;;;;0.10;0.10;;;9.60;99.90;;;;;;5023408;28;20220;-84
2021/03/13 09:47:42;;;;;;;0.10;0.10;;;9.60;99.90;;;;;;5028912;28;20197;-84
2021/03/13 09:50:11;;;;;;;0.10;0.10;;;9.70;99.90;;;;;;5028422;28;20193;-84
2021/03/13 09:52:41;;;;;;;0.10;0.10;;;9.90;99.90;;;;;;5025344;28;20187;-84
2021/03/13 09:55:11;;;;;;;0.00;0.00;;;9.80;99.90;;;;;;5031774;28;20221;-84
2021/03/13 09:57:38;;;;;;;0.10;0.10;;;9.80;99.90;;;;;;5038144;28;20182;-84
2021/03/13 10:00:32;;;;;;;0.10;0.10;;;9.80;99.90;;;;;;5027608;28;20534;-84
2021/03/13 10:03:00;;;;;;;0.03;0.03;;;9.80;99.90;;;;;;5020223;28;20594;-84
2021/03/13 10:05:28;;;;;;;0.00;0.00;;;10.00;99.90;;;;;;5034584;28;20261;-85
2021/03/13 10:07:53;;;;;;;0.07;0.07;;;9.90;99.90;;;;;;5034690;28;20186;-85
2021/03/13 10:10:21;;;;;;;0.10;0.10;;;9.90;99.90;;;;;;5037364;28;20210;-85
2021/03/13 10:12:55;;;;;;;0.10;0.10;;;9.80;99.90;;;;;;5036500;28;20194;-85
2021/03/13 10:15:32;;;;;;;1.50;0.10;;;9.70;99.90;;;;;;5028265;28;20189;-85
2021/03/13 10:18:15;;;;;;;0.10;0.10;;;9.60;99.90;;;;;;5041301;28;20174;-84
2021/03/13 10:20:49;;;;;;;0.10;0.10;;;9.30;99.90;;;;;;5038542;28;20193;-84
2021/03/13 10:23:21;;;;;;;0.10;0.10;;;9.20;99.90;;;;;;5036027;28;20201;-84
2021/03/13 10:26:14;;;;;;;0.00;0.00;;;9.00;99.90;;;;;;5036593;28;20666;-84
2021/03/13 10:28:45;;;;;;;0.20;0.20;;;8.70;99.90;;;;;;5051432;28;20279;-84
2021/03/13 10:31:26;;;;;;;0.10;0.10;;;8.70;99.90;;;;;;5032734;28;20215;-84
2021/03/13 10:33:52;;;;;;;0.10;0.10;;;8.50;99.90;;;;;;5040144;28;20239;-84
2021/03/13 10:36:19;;;;;;;0.10;0.10;;;8.40;99.90;;;;;;5043116;28;20188;-83
2021/03/13 10:38:48;;;;;;;0.23;0.23;;;8.20;99.90;;;;;;5048789;28;20221;-83
2021/03/13 10:41:16;;;;;;;0.00;0.00;;;8.20;99.90;;;;;;5037809;28;20209;-84
2021/03/13 10:43:44;;;;;;;0.10;0.10;;;8.20;99.90;;;;;;5038764;28;20228;-84
2021/03/13 10:46:14;;;;;;;0.00;0.00;;;8.20;99.90;;;;;;5035260;28;20199;-83
2021/03/13 10:48:43;;;;;;;0.10;0.10;;;8.10;99.90;;;;;;5034611;28;20194;-85
2021/03/13 10:51:41;;;;;;;0.10;0.10;;;8.10;99.90;;;;;;5035150;28;20187;-83
2021/03/13 10:54:24;;;;;;;0.23;0.23;;;8.10;99.90;;;;;;5027621;28;20285;-83
2021/03/13 10:56:50;;;;;;;0.10;0.10;;;8.20;99.90;;;;;;5028846;28;20673;-84
2021/03/13 10:59:16;;;;;;;0.10;0.10;;;8.00;99.90;;;;;;5045955;28;20202;-84
2021/03/13 11:01:46;;;;;;;0.20;0.20;;;8.00;99.90;;;;;;5034011;28;20647;-82
2021/03/13 11:04:13;;;;;;;0.03;0.03;;;8.00;99.90;;;;;;5051880;28;20220;-84
2021/03/13 11:06:39;;;;;;;0.10;0.10;;;8.00;99.90;;;;;;5035680;28;20194;-83
2021/03/13 11:09:09;;;;;;;0.00;0.00;;;8.00;99.90;;;;;;5037810;28;20187;-83
2021/03/13 11:11:35;;;;;;;0.00;0.00;;;7.90;99.90;;;;;;5037710;28;20214;-84
2021/03/13 11:14:02;;;;;;;0.00;0.00;;;7.70;99.90;;;;;;5036719;28;20580;-84
2021/03/13 11:16:28;;;;;;;0.10;0.10;;;7.70;99.90;;;;;;5039606;28;20178;-83
2021/03/13 11:18:55;;;;;;;0.10;0.10;;;7.60;99.90;;;;;;5042451;28;20193;-83
2021/03/13 11:21:25;;;;;;;0.10;0.10;;;7.60;99.90;;;;;;5033525;28;21896;-83
2021/03/13 11:23:52;;;;;;;0.03;0.03;;;7.70;99.90;;;;;;5043874;28;20226;-83
2021/03/13 11:26:19;;;;;;;0.00;0.00;;;7.70;99.90;;;;;;5037332;28;20191;-84
2021/03/13 11:28:44;;;;;;;0.20;0.20;;;7.80;99.90;;;;;;5029823;28;20198;-83
2021/03/13 11:31:11;;;;;;;0.13;0.13;;;7.80;99.90;;;;;;5026986;28;20195;-84
2021/03/13 11:33:37;;;;;;;0.10;0.10;;;7.80;99.90;;;;;;5031727;28;20221;-84
2021/03/13 11:36:03;;;;;;;0.17;0.07;;;7.90;99.90;;;;;;5027722;28;20182;-83
2021/03/13 11:38:29;;;;;;;0.10;0.10;;;7.80;99.90;;;;;;5039290;28;20273;-84
2021/03/13 11:40:55;;;;;;;0.00;0.00;;;7.80;99.90;;;;;;5028569;28;20183;-84
2021/03/13 11:43:22;;;;;;;0.10;0.10;;;7.90;99.90;;;;;;5028070;28;20281;-84
2021/03/13 11:45:47;;;;;;;0.10;0.10;;;8.00;99.90;;;;;;5043099;28;20194;-85
2021/03/13 11:48:13;;;;;;;0.00;0.00;;;8.10;99.90;;;;;;5027585;28;20697;-84
2021/03/13 11:50:38;;;;;;;0.10;0.10;;;7.90;99.90;;;;;;5026449;28;20772;-84
2021/03/13 11:53:04;;;;;;;0.10;0.10;;;7.80;99.90;;;;;;5030631;28;20210;-84
2021/03/13 11:55:30;;;;;;;0.20;0.20;;;7.70;99.90;;;;;;5030646;28;20252;-84
2021/03/13 11:57:56;;;;;;;0.20;0.20;;;7.70;99.90;;;;;;5033498;28;20193;-85
2021/03/13 12:00:22;;;;;;;0.07;0.07;;;7.80;99.90;;;;;;5028650;28;20189;-85
2021/03/13 12:02:47;;;;;;;0.00;0.00;;;7.80;99.90;;;;;;5022018;28;20282;-84
2021/03/13 12:05:13;;;;;;;0.10;0.10;;;7.80;99.90;;;;;;5026099;28;20563;-84
2021/03/13 12:07:40;;;;;;;0.10;0.10;;;7.90;99.90;;;;;;5032048;28;20190;-84
2021/03/13 12:10:08;;;;;;;0.10;0.10;;;7.90;99.90;;;;;;5042646;28;20189;-84
2021/03/13 12:12:35;;;;;;;0.10;0.10;;;8.20;99.90;;;;;;5031734;28;20212;-84
2021/03/13 12:15:01;;;;;;;0.00;0.00;;;8.40;99.90;;;;;;5029073;28;20211;-84
2021/03/13 12:17:26;;;;;;;0.00;0.00;;;8.50;99.90;;;;;;5030657;28;20795;-83
2021/03/13 12:19:52;;;;;;;0.10;0.10;;;8.50;99.90;;;;;;5030043;28;20192;-82
2021/03/13 12:22:18;;;;;;;0.20;0.20;;;8.40;99.90;;;;;;5039567;28;20663;-83
2021/03/13 12:24:45;;;;;;;4.43;0.20;;;8.20;99.90;;;;;;5031584;28;20211;-83
2021/03/13 12:27:10;;;;;;;0.20;0.20;;;8.50;99.90;;;;;;5031665;28;20213;-83
2021/03/13 12:29:36;;;;;;;0.10;0.10;;;8.40;99.90;;;;;;5029129;28;20190;-83
2021/03/13 12:32:02;;;;;;;0.10;0.10;;;8.50;99.90;;;;;;5038232;28;20222;-82
2021/03/13 12:34:28;;;;;;;1.90;0.10;;;8.30;99.90;;;;;;5048025;28;20210;-82
2021/03/13 12:36:54;;;;;;;0.10;0.10;;;8.30;99.90;;;;;;5033196;28;20195;-83
2021/03/13 12:39:19;;;;;;;0.00;0.00;;;8.10;99.90;;;;;;5031605;28;20233;-83
2021/03/13 12:41:46;;;;;;;0.00;0.00;;;8.00;99.90;;;;;;5031156;28;20269;-82
2021/03/13 12:44:12;;;;;;;0.10;0.10;;;8.10;99.90;;;;;;5032982;28;20376;-83
2021/03/13 12:46:38;;;;;;;0.00;0.00;;;8.60;99.90;;;;;;5033963;28;20203;-83
2021/03/13 12:49:04;;;;;;;0.00;0.00;;;9.00;99.90;;;;;;5032333;28;20186;-83
2021/03/13 12:51:30;;;;;;;0.20;0.20;;;9.30;99.90;;;;;;5030873;28;20682;-82
2021/03/13 12:53:55;;;;;;;0.10;0.10;;;9.40;99.90;;;;;;5031392;28;20214;-82
2021/03/13 12:56:21;;;;;;;0.10;0.10;;;9.40;99.90;;;;;;5033712;28;20601;-82
2021/03/13 12:58:46;;;;;;;0.10;0.10;;;9.50;99.90;;;;;;5044047;28;20178;-83
2021/03/13 13:01:12;;;;;;;0.10;0.10;;;9.50;99.90;;;;;;5026705;28;20191;-83
2021/03/13 13:03:37;;;;;;;3.93;0.33;;;9.50;99.90;;;;;;5029704;28;20562;-84
2021/03/13 13:06:03;;;;;;;0.00;0.00;;;9.60;99.90;;;;;;5026908;28;20214;-83
2021/03/13 13:08:29;;;;;;;0.13;0.13;;;9.60;99.90;;;;;;5025991;28;20188;-83
2021/03/13 13:10:55;;;;;;;0.10;0.10;;;9.50;99.90;;;;;;5027590;28;20192;-83